Time;durP1;ratioP1;P1;durP2;ratioP2;P2;SDS_P1;SDS_P2;PMS_P1;PMS_P2;Temp;Humidity;BMP_temperature;BMP_pressure;BME280_temperature;BME280_humidity;BME280_pressure;Samples;Min_cycle;Max_cycle;Signal;HPM_P1;HPM_P2
2020/12/02 00:02:33;;;;;;;28.98;13.73;;;7.30;99.90;;;;;;5077068;28;20040;-85
2020/12/02 00:05:03;;;;;;;16.38;11.70;;;7.30;99.90;;;;;;5076624;28;20040;-84
2020/12/02 00:07:33;;;;;;;17.55;12.38;;;7.20;99.90;;;;;;5078789;28;20025;-85
2020/12/02 00:09:59;;;;;;;21.08;13.15;;;7.20;99.90;;;;;;5076440;28;20055;-85
2020/12/02 00:12:25;;;;;;;19.63;13.40;;;7.20;99.90;;;;;;5061763;28;20029;-83
2020/12/02 00:14:52;;;;;;;23.88;13.23;;;7.20;99.90;;;;;;5079127;28;20036;-84
2020/12/02 00:17:19;;;;;;;19.88;12.52;;;7.30;99.90;;;;;;5074924;28;20028;-85
2020/12/02 00:19:49;;;;;;;24.90;13.95;;;7.40;99.90;;;;;;5074553;28;20032;-83
2020/12/02 00:22:21;;;;;;;20.27;13.15;;;7.40;99.90;;;;;;5074487;28;20021;-84
2020/12/02 00:24:48;;;;;;;20.13;14.27;;;7.40;99.90;;;;;;5075334;28;20028;-84
2020/12/02 00:27:21;;;;;;;22.45;13.23;;;7.50;99.90;;;;;;5058800;28;20047;-84
2020/12/02 00:29:47;;;;;;;19.60;13.15;;;7.40;99.90;;;;;;5074202;28;20029;-84
2020/12/02 00:32:27;;;;;;;27.08;14.50;;;7.40;99.90;;;;;;5043586;28;20055;-84
2020/12/02 00:34:53;;;;;;;23.60;14.90;;;7.30;99.90;;;;;;5095703;28;20028;-85
2020/12/02 00:37:19;;;;;;;24.23;14.40;;;7.40;99.90;;;;;;5077504;28;20075;-84
2020/12/02 00:39:45;;;;;;;19.55;13.15;;;7.30;99.90;;;;;;5096470;28;20422;-84
2020/12/02 00:42:10;;;;;;;21.50;13.25;;;7.20;99.90;;;;;;5095377;28;20462;-84
2020/12/02 00:44:36;;;;;;;20.33;14.20;;;7.20;99.90;;;;;;5077573;28;20028;-84
2020/12/02 00:47:02;;;;;;;28.35;15.20;;;7.30;99.90;;;;;;5077467;28;20052;-84
2020/12/02 00:49:27;;;;;;;20.98;13.77;;;7.20;99.90;;;;;;5060844;28;20093;-83
2020/12/02 00:51:55;;;;;;;23.23;16.02;;;7.20;99.90;;;;;;5083037;28;20024;-83
2020/12/02 00:54:21;;;;;;;24.85;15.43;;;7.20;99.90;;;;;;5097693;28;20028;-83
2020/12/02 00:56:47;;;;;;;21.27;14.45;;;7.20;99.90;;;;;;5061555;28;20085;-85
2020/12/02 00:59:21;;;;;;;17.73;12.90;;;7.20;99.90;;;;;;5077133;28;20032;-85
2020/12/02 01:02:35;;;;;;;22.20;16.05;;;7.30;99.90;;;;;;5076688;28;20069;-84
2020/12/02 01:05:02;;;;;;;20.60;14.48;;;7.30;99.90;;;;;;5056463;28;20028;-85
2020/12/02 01:07:28;;;;;;;22.73;15.52;;;7.40;99.90;;;;;;5060724;28;20135;-84
2020/12/02 01:09:57;;;;;;;28.38;15.95;;;7.20;99.90;;;;;;5063062;28;20540;-83
2020/12/02 01:12:23;;;;;;;23.58;15.77;;;7.20;99.90;;;;;;5098122;28;20492;-84
2020/12/02 01:14:49;;;;;;;24.40;16.45;;;7.20;99.90;;;;;;5098011;28;20095;-83
2020/12/02 01:17:15;;;;;;;26.23;16.55;;;7.20;99.90;;;;;;5063003;28;20081;-84
2020/12/02 01:19:41;;;;;;;22.95;15.45;;;7.20;99.90;;;;;;5078658;28;20027;-84
2020/12/02 01:22:16;;;;;;;21.65;16.52;;;7.10;99.90;;;;;;5076745;28;20028;-83
2020/12/02 01:25:05;;;;;;;;;;;7.10;99.90;;;;;;5077268;28;20028;-84
2020/12/02 01:27:36;;;;;;;22.60;14.93;;;7.00;99.90;;;;;;5062692;28;19904;-84
2020/12/02 01:30:08;;;;;;;21.73;14.55;;;7.10;99.90;;;;;;5076433;28;20047;-84
2020/12/02 01:32:35;;;;;;;23.42;16.05;;;7.00;99.90;;;;;;5094272;28;20058;-84
2020/12/02 01:35:01;;;;;;;22.70;14.57;;;7.00;99.90;;;;;;5076224;28;20024;-84
2020/12/02 01:37:36;;;;;;;24.38;15.15;;;7.10;99.90;;;;;;5043187;28;20449;-83
2020/12/02 01:40:16;;;;;;;25.65;16.40;;;7.10;99.90;;;;;;5094191;28;20024;-85
2020/12/02 01:42:45;;;;;;;24.60;15.43;;;7.10;99.90;;;;;;5076216;28;20056;-84
2020/12/02 01:45:30;;;;;;;25.50;16.08;;;7.20;99.90;;;;;;5076412;28;20031;-85
2020/12/02 01:48:02;;;;;;;23.67;15.97;;;7.20;99.90;;;;;;5076187;28;20044;-83
2020/12/02 01:50:50;;;;;;;21.83;15.27;;;7.20;99.90;;;;;;5094158;28;20028;-84
2020/12/02 01:53:33;;;;;;;20.88;15.05;;;7.20;99.90;;;;;;5075736;28;20358;-84
2020/12/02 01:56:11;;;;;;;22.02;15.10;;;7.20;99.90;;;;;;5076114;28;20031;-84
2020/12/02 01:58:51;;;;;;;20.48;14.32;;;7.30;99.90;;;;;;5094180;28;20050;-84
2020/12/02 02:01:42;;;;;;;24.98;15.27;;;7.20;99.90;;;;;;5096355;28;20028;-83
2020/12/02 02:04:14;;;;;;;26.92;14.90;;;7.20;99.90;;;;;;5075607;28;20070;-84
2020/12/02 02:07:04;;;;;;;30.73;17.85;;;7.10;99.90;;;;;;5094109;28;20024;-84
2020/12/02 02:09:31;;;;;;;28.45;15.45;;;7.00;99.90;;;;;;5075656;28;20590;-83
2020/12/02 02:12:23;;;;;;;20.92;14.05;;;7.10;99.90;;;;;;5058868;28;20384;-83
2020/12/02 02:15:11;;;;;;;22.73;15.02;;;7.00;99.90;;;;;;5062169;28;20032;-84
2020/12/02 02:17:37;;;;;;;23.10;15.32;;;7.00;99.90;;;;;;5074944;28;20027;-84
2020/12/02 02:20:05;;;;;;;25.52;15.90;;;7.10;99.90;;;;;;5058840;28;20459;-83
2020/12/02 02:22:31;;;;;;;22.40;14.60;;;7.10;99.90;;;;;;5075945;28;20060;-84
2020/12/02 02:24:57;;;;;;;21.70;14.43;;;7.20;99.90;;;;;;5042423;28;20035;-83
2020/12/02 02:27:27;;;;;;;26.80;15.88;;;7.20;99.90;;;;;;5059690;28;20051;-84
2020/12/02 02:29:53;;;;;;;24.45;15.93;;;7.10;99.90;;;;;;5075338;28;20489;-85
2020/12/02 02:32:25;;;;;;;21.15;14.65;;;7.00;99.90;;;;;;5075696;28;20031;-84
2020/12/02 02:34:56;;;;;;;27.65;16.17;;;7.10;99.90;;;;;;5093782;28;20054;-85
2020/12/02 02:37:29;;;;;;;20.23;14.02;;;7.20;99.90;;;;;;5075714;28;20485;-83
2020/12/02 02:39:58;;;;;;;21.77;14.65;;;7.20;99.90;;;;;;5075462;28;20039;-84
2020/12/02 02:42:30;;;;;;;27.75;18.48;;;7.20;99.90;;;;;;5077248;28;20155;-85
2020/12/02 02:44:58;;;;;;;26.33;16.85;;;7.00;99.90;;;;;;5078132;28;20027;-84
2020/12/02 02:47:23;;;;;;;21.35;14.70;;;7.10;99.90;;;;;;5093571;28;20466;-84
2020/12/02 02:49:49;;;;;;;23.08;16.65;;;7.10;99.90;;;;;;5075165;28;20126;-84
2020/12/02 02:52:15;;;;;;;22.92;15.57;;;7.10;99.90;;;;;;5042660;28;20032;-84
2020/12/02 02:54:41;;;;;;;23.58;15.43;;;7.00;99.90;;;;;;5059148;28;20390;-83
2020/12/02 02:57:10;;;;;;;23.45;15.60;;;7.00;99.90;;;;;;5075574;28;20020;-84
2020/12/02 02:59:36;;;;;;;24.25;15.23;;;7.00;99.90;;;;;;5075864;28;20474;-84
2020/12/02 03:02:03;;;;;;;22.08;15.30;;;7.00;99.90;;;;;;5093766;28;20099;-84
2020/12/02 03:04:29;;;;;;;23.75;14.20;;;7.10;99.90;;;;;;5059460;28;20055;-84
2020/12/02 03:06:54;;;;;;;26.67;16.58;;;7.20;99.90;;;;;;5060207;28;20470;-83
2020/12/02 03:09:20;;;;;;;26.27;18.10;;;7.10;99.90;;;;;;5079291;28;20082;-83
2020/12/02 03:11:48;;;;;;;23.88;16.10;;;7.10;99.90;;;;;;5053320;28;20042;-84
2020/12/02 03:14:14;;;;;;;25.35;16.63;;;7.10;99.90;;;;;;5091689;28;20051;-82
2020/12/02 03:16:45;;;;;;;23.98;16.00;;;7.10;99.90;;;;;;5058906;28;20449;-83
2020/12/02 03:19:23;;;;;;;23.55;14.65;;;7.10;99.90;;;;;;5104614;28;20026;-82
2020/12/02 03:21:51;;;;;;;27.42;17.67;;;7.20;99.90;;;;;;5081068;28;20081;-83
2020/12/02 03:24:18;;;;;;;22.23;15.02;;;7.10;99.90;;;;;;5101104;28;20041;-84
2020/12/02 03:26:46;;;;;;;31.10;19.70;;;7.00;99.90;;;;;;5090948;28;20065;-82
2020/12/02 03:29:11;;;;;;;26.13;16.45;;;7.00;99.90;;;;;;5098029;28;20054;-82
2020/12/02 03:31:37;;;;;;;27.13;16.83;;;7.00;99.90;;;;;;5081826;28;20020;-82
2020/12/02 03:34:05;;;;;;;30.13;17.55;;;7.10;99.90;;;;;;5094180;28;20048;-84
2020/12/02 03:36:31;;;;;;;27.73;16.58;;;7.20;99.90;;;;;;5087261;28;20032;-83
2020/12/02 03:38:57;;;;;;;28.50;17.50;;;7.20;99.90;;;;;;5087131;28;20174;-82
2020/12/02 03:41:23;;;;;;;38.05;20.25;;;7.10;99.90;;;;;;5077490;28;20047;-83
2020/12/02 03:43:49;;;;;;;32.65;19.40;;;7.10;99.90;;;;;;5081320;28;20028;-82
2020/12/02 03:46:15;;;;;;;27.65;17.80;;;7.00;99.90;;;;;;5116670;28;20047;-82
2020/12/02 03:48:40;;;;;;;27.58;18.05;;;6.90;99.90;;;;;;5110694;28;20461;-83
2020/12/02 03:51:06;;;;;;;24.55;16.20;;;6.90;99.90;;;;;;5085871;28;20040;-83
2020/12/02 03:53:32;;;;;;;31.67;18.63;;;6.90;99.90;;;;;;5110098;28;20103;-84
2020/12/02 03:55:58;;;;;;;33.03;21.08;;;6.90;99.90;;;;;;5097073;28;20058;-83
2020/12/02 03:58:23;;;;;;;22.77;17.35;;;6.90;99.90;;;;;;5065683;28;20487;-84
2020/12/02 04:00:49;;;;;;;27.65;18.02;;;6.90;99.90;;;;;;5082170;28;20050;-82
2020/12/02 04:03:15;;;;;;;25.70;18.30;;;7.00;99.90;;;;;;5091585;28;20370;-84
2020/12/02 04:05:41;;;;;;;26.58;17.70;;;7.00;99.90;;;;;;5100273;28;20024;-84
2020/12/02 04:08:07;;;;;;;27.80;18.13;;;7.00;99.90;;;;;;5081855;28;20111;-84
2020/12/02 04:10:34;;;;;;;25.70;16.83;;;7.00;99.90;;;;;;5067382;28;20079;-84
2020/12/02 04:12:59;;;;;;;27.90;18.27;;;7.10;99.90;;;;;;5063752;28;20393;-84
2020/12/02 04:15:25;;;;;;;23.63;17.15;;;7.20;99.90;;;;;;5078243;28;20028;-84
2020/12/02 04:17:51;;;;;;;23.63;16.35;;;7.10;99.90;;;;;;5078125;28;20115;-84
2020/12/02 04:20:20;;;;;;;24.15;16.13;;;7.10;99.90;;;;;;5077498;28;20425;-84
2020/12/02 04:22:47;;;;;;;26.63;16.88;;;7.20;99.90;;;;;;5061470;28;20028;-84
2020/12/02 04:25:13;;;;;;;26.90;16.58;;;7.30;99.90;;;;;;5077600;28;20070;-84
2020/12/02 04:27:39;;;;;;;26.00;17.70;;;7.40;99.90;;;;;;5078489;28;20032;-85
2020/12/02 04:30:06;;;;;;;30.27;17.15;;;7.40;99.90;;;;;;5060889;28;20608;-84
2020/12/02 04:32:32;;;;;;;23.60;16.13;;;7.40;99.90;;;;;;5077344;28;20044;-84
2020/12/02 04:35:01;;;;;;;28.85;17.42;;;7.40;99.90;;;;;;5060909;28;20035;-85
2020/12/02 04:37:29;;;;;;;32.67;20.83;;;7.50;99.90;;;;;;5079266;28;20035;-84
2020/12/02 04:39:56;;;;;;;26.73;17.58;;;7.40;99.90;;;;;;5094354;28;20028;-86
2020/12/02 04:42:27;;;;;;;27.35;18.05;;;7.30;99.90;;;;;;5077554;28;20454;-84
2020/12/02 04:44:52;;;;;;;25.45;17.33;;;7.40;99.90;;;;;;5095746;28;20539;-85
2020/12/02 04:47:19;;;;;;;26.92;16.95;;;7.40;99.90;;;;;;5060390;28;20027;-84
2020/12/02 04:49:47;;;;;;;30.20;18.70;;;7.30;99.90;;;;;;5077234;28;20151;-84
2020/12/02 04:52:14;;;;;;;33.28;19.42;;;7.00;99.90;;;;;;5076702;28;20077;-84
2020/12/02 04:54:41;;;;;;;36.13;21.73;;;6.80;99.90;;;;;;5077166;28;20089;-85
2020/12/02 04:57:09;;;;;;;32.25;20.48;;;6.70;99.90;;;;;;5076751;28;20054;-84
2020/12/02 04:59:39;;;;;;;35.30;21.00;;;6.60;99.90;;;;;;5076997;28;20028;-84
2020/12/02 05:02:06;;;;;;;41.35;24.05;;;6.60;99.90;;;;;;5095413;28;20056;-84
2020/12/02 05:04:32;;;;;;;40.40;23.95;;;6.60;99.90;;;;;;5060135;28;20440;-84
2020/12/02 05:07:03;;;;;;;47.35;25.10;;;6.60;99.90;;;;;;5076699;28;20024;-84
2020/12/02 05:09:29;;;;;;;36.38;23.80;;;6.60;99.90;;;;;;5076778;28;20032;-83
2020/12/02 05:11:58;;;;;;;47.13;25.90;;;6.60;99.90;;;;;;5076681;28;20096;-84
2020/12/02 05:14:35;;;;;;;48.13;28.15;;;6.60;99.90;;;;;;5076455;28;20028;-84
2020/12/02 05:17:15;;;;;;;58.78;31.20;;;6.60;99.90;;;;;;5094762;28;20228;-85
2020/12/02 05:19:41;;;;;;;58.83;31.42;;;6.50;99.90;;;;;;5077479;28;20035;-84
2020/12/02 05:22:13;;;;;;;60.20;32.05;;;6.60;99.90;;;;;;5059886;28;20039;-84
2020/12/02 05:24:48;;;;;;;64.90;33.67;;;6.60;99.90;;;;;;5059990;28;20462;-84
2020/12/02 05:27:18;;;;;;;53.70;29.67;;;6.60;99.90;;;;;;5076293;28;20028;-84
2020/12/02 05:29:52;;;;;;;55.90;31.23;;;6.60;99.90;;;;;;5075845;28;20428;-84
2020/12/02 05:32:25;;;;;;;46.42;29.48;;;6.60;99.90;;;;;;5076318;28;20089;-84
2020/12/02 05:34:52;;;;;;;49.00;28.63;;;6.70;99.90;;;;;;5095198;28;20048;-84
2020/12/02 05:37:30;;;;;;;51.08;29.42;;;6.70;99.90;;;;;;5094140;28;20299;-84
2020/12/02 05:40:02;;;;;;;54.13;29.55;;;6.70;99.90;;;;;;5095050;28;20085;-84
2020/12/02 05:42:37;;;;;;;40.97;25.75;;;6.70;99.90;;;;;;5094409;28;20031;-84
2020/12/02 05:45:12;;;;;;;46.13;26.95;;;6.80;99.90;;;;;;5077734;28;20055;-84
2020/12/02 05:47:37;;;;;;;43.25;25.23;;;6.80;99.90;;;;;;5094105;28;20465;-84
2020/12/02 05:50:07;;;;;;;45.33;26.10;;;6.80;99.90;;;;;;5059081;28;20047;-83
2020/12/02 05:52:36;;;;;;;45.88;27.33;;;6.70;99.90;;;;;;5075929;28;20051;-84
2020/12/02 05:55:05;;;;;;;37.25;24.13;;;6.70;99.90;;;;;;5093875;28;20545;-85
2020/12/02 05:57:33;;;;;;;48.05;26.88;;;6.80;99.90;;;;;;5094173;28;20020;-82
2020/12/02 06:00:00;;;;;;;47.90;27.05;;;6.90;99.90;;;;;;5075902;28;20028;-83
2020/12/02 06:02:26;;;;;;;44.28;24.90;;;6.90;99.90;;;;;;5066858;28;20108;-82
2020/12/02 06:04:54;;;;;;;41.30;24.85;;;7.00;99.90;;;;;;5081766;28;20012;-83
2020/12/02 06:07:21;;;;;;;48.58;26.13;;;7.20;99.90;;;;;;5077181;28;20370;-84
2020/12/02 06:09:49;;;;;;;36.58;24.08;;;7.20;99.90;;;;;;5094115;28;20059;-84
2020/12/02 06:12:19;;;;;;;40.92;23.58;;;7.20;99.90;;;;;;5075630;28;20020;-83
2020/12/02 06:14:44;;;;;;;39.58;24.10;;;7.20;99.90;;;;;;5076129;28;20330;-83
2020/12/02 06:17:31;;;;;;;41.25;23.92;;;7.40;99.90;;;;;;5059375;28;20085;-83
2020/12/02 06:19:57;;;;;;;39.00;22.80;;;7.50;99.90;;;;;;5075866;28;20028;-84
2020/12/02 06:22:33;;;;;;;43.05;26.10;;;7.50;99.90;;;;;;5075713;28;20487;-84
2020/12/02 06:24:58;;;;;;;35.10;22.80;;;7.60;99.90;;;;;;5075876;28;20354;-84
2020/12/02 06:27:30;;;;;;;37.20;22.52;;;7.70;99.90;;;;;;5058897;28;20035;-83
2020/12/02 06:30:05;;;;;;;33.85;21.95;;;7.80;99.90;;;;;;5093732;28;20039;-83
2020/12/02 06:32:32;;;;;;;39.55;23.75;;;7.80;99.90;;;;;;5076370;28;20020;-84
2020/12/02 06:35:19;;;;;;;42.75;25.88;;;7.80;99.90;;;;;;5077231;28;20123;-84
2020/12/02 06:38:10;;;;;;;40.63;24.45;;;7.60;99.90;;;;;;5094053;28;20024;-83
2020/12/02 06:40:35;;;;;;;38.20;23.73;;;7.50;99.90;;;;;;5076754;28;20028;-83
2020/12/02 06:43:06;;;;;;;41.47;24.05;;;7.30;99.90;;;;;;5042892;28;20032;-83
2020/12/02 06:45:36;;;;;;;43.38;24.88;;;7.30;99.90;;;;;;5075093;28;20477;-84
2020/12/02 06:48:11;;;;;;;44.00;25.92;;;7.20;99.90;;;;;;5075827;28;20042;-90
2020/12/02 06:50:37;;;;;;;40.85;23.75;;;7.30;99.90;;;;;;5093435;28;20044;-84
2020/12/02 06:53:19;;;;;;;41.10;25.60;;;7.30;99.90;;;;;;5075286;28;20020;-88
2020/12/02 06:55:46;;;;;;;41.72;25.42;;;7.40;99.90;;;;;;5093512;28;20055;-82
2020/12/02 06:58:17;;;;;;;40.45;25.23;;;7.50;99.90;;;;;;5075561;28;20055;-84
2020/12/02 07:00:52;;;;;;;40.33;24.35;;;7.50;99.90;;;;;;5075512;28;20031;-84
2020/12/02 07:03:23;;;;;;;;;;;7.60;99.90;;;;;;5078326;28;20081;-83
2020/12/02 07:05:51;;;;;;;36.22;23.20;;;7.70;99.90;;;;;;5080288;28;20368;-83
2020/12/02 07:08:31;;;;;;;39.72;23.98;;;7.60;99.90;;;;;;5079726;28;20028;-84
2020/12/02 07:10:59;;;;;;;35.67;21.88;;;7.60;99.90;;;;;;5097750;28;20040;-85
2020/12/02 07:13:28;;;;;;;38.83;22.65;;;7.70;99.90;;;;;;5097658;28;20020;-83
2020/12/02 07:15:53;;;;;;;33.58;22.15;;;7.70;99.90;;;;;;5078927;28;20024;-83
2020/12/02 07:18:22;;;;;;;42.90;26.38;;;7.70;99.90;;;;;;5062298;28;20028;-83
2020/12/02 07:21:04;;;;;;;35.65;22.55;;;7.60;99.90;;;;;;5096748;28;20035;-83
2020/12/02 07:23:32;;;;;;;36.92;23.05;;;7.60;99.90;;;;;;5096824;28;20103;-82
2020/12/02 07:25:58;;;;;;;33.00;21.75;;;7.70;99.90;;;;;;5062038;28;20111;-83
2020/12/02 07:28:23;;;;;;;37.45;22.77;;;7.70;99.90;;;;;;5062383;28;20140;-83
2020/12/02 07:30:49;;;;;;;37.25;23.25;;;7.80;99.90;;;;;;5078767;28;20042;-83
2020/12/02 07:33:28;;;;;;;35.35;22.25;;;7.80;99.90;;;;;;5078634;28;20084;-83
2020/12/02 07:36:16;;;;;;;32.22;21.20;;;7.90;99.90;;;;;;5078682;28;20028;-83
2020/12/02 07:38:44;;;;;;;38.70;24.42;;;7.80;99.90;;;;;;5078673;28;20032;-82
2020/12/02 07:41:18;;;;;;;38.95;24.48;;;7.80;99.90;;;;;;5079000;28;20470;-84
2020/12/02 07:43:47;;;;;;;38.28;23.58;;;7.80;99.90;;;;;;5080093;28;20070;-83
2020/12/02 07:46:14;;;;;;;42.03;24.05;;;7.80;99.90;;;;;;5082627;28;20469;-84
2020/12/02 07:48:41;;;;;;;36.10;23.45;;;7.90;99.90;;;;;;5099735;28;20028;-84
2020/12/02 07:51:24;;;;;;;47.70;28.70;;;7.90;99.90;;;;;;5079931;28;20150;-85
2020/12/02 07:53:54;;;;;;;43.33;26.48;;;7.70;99.90;;;;;;5079841;28;20369;-83
2020/12/02 07:56:34;;;;;;;41.92;26.73;;;7.50;99.90;;;;;;5080199;28;20043;-84
2020/12/02 07:59:20;;;;;;;47.67;27.25;;;7.60;99.90;;;;;;5094232;27;20051;-83
2020/12/02 08:02:09;;;;;;;42.45;26.95;;;7.60;99.90;;;;;;5097515;28;20054;-82
2020/12/02 08:04:52;;;;;;;48.30;26.92;;;7.50;99.90;;;;;;5084931;27;20012;-82
2020/12/02 08:07:19;;;;;;;46.80;27.98;;;7.60;99.90;;;;;;5092301;28;20035;-82
2020/12/02 08:09:51;;;;;;;43.80;26.08;;;7.60;99.90;;;;;;5108802;28;20035;-83
2020/12/02 08:12:26;;;;;;;50.95;29.38;;;7.60;99.90;;;;;;5098063;28;20060;-82
2020/12/02 08:15:11;;;;;;;46.05;28.77;;;7.50;99.90;;;;;;5098282;28;20072;-83
2020/12/02 08:17:40;;;;;;;62.25;33.95;;;7.50;99.90;;;;;;5078786;28;20459;-84
2020/12/02 08:20:24;;;;;;;55.45;32.42;;;7.30;99.90;;;;;;5079327;28;20474;-84
2020/12/02 08:22:53;;;;;;;58.13;31.67;;;7.20;99.90;;;;;;5082083;28;20035;-82
2020/12/02 08:25:30;;;;;;;48.28;28.58;;;7.10;99.90;;;;;;5083566;28;20115;-81
2020/12/02 08:28:01;;;;;;;51.10;30.08;;;7.10;99.90;;;;;;5083648;28;20024;-82
2020/12/02 08:30:29;;;;;;;46.72;27.58;;;7.20;99.90;;;;;;5115001;27;20063;-82
2020/12/02 08:33:02;;;;;;;47.03;28.83;;;7.40;99.90;;;;;;5080985;28;20108;-83
2020/12/02 08:35:49;;;;;;;57.42;31.58;;;7.50;99.90;;;;;;5090750;28;20032;-84
2020/12/02 08:38:16;;;;;;;47.10;28.08;;;7.10;99.90;;;;;;5086829;28;20032;-87
2020/12/02 08:40:50;;;;;;;44.20;28.05;;;7.20;99.90;;;;;;5093163;28;20033;-83
2020/12/02 08:43:23;;;;;;;56.03;32.17;;;7.30;99.90;;;;;;5075765;28;20028;-84
2020/12/02 08:46:01;;;;;;;61.88;33.38;;;7.40;99.90;;;;;;5076408;28;20032;-84
2020/12/02 08:48:51;;;;;;;49.92;29.40;;;7.10;99.90;;;;;;5080429;28;20025;-84
2020/12/02 08:51:20;;;;;;;49.53;29.80;;;7.10;99.90;;;;;;5021862;28;20064;-84
2020/12/02 08:53:46;;;;;;;54.00;32.70;;;7.10;99.90;;;;;;5074971;28;20035;-84
2020/12/02 08:56:27;;;;;;;57.30;33.20;;;7.20;99.90;;;;;;5074048;28;20024;-84
2020/12/02 08:58:53;;;;;;;58.53;31.25;;;7.00;99.90;;;;;;5076063;28;20078;-83
2020/12/02 09:01:19;;;;;;;53.17;31.40;;;6.90;99.90;;;;;;5058089;28;20032;-82
2020/12/02 09:03:44;;;;;;;50.20;29.33;;;6.90;99.90;;;;;;5075759;28;20029;-84
2020/12/02 09:06:16;;;;;;;57.10;31.58;;;6.90;99.90;;;;;;5043787;28;20041;-89
2020/12/02 09:08:42;;;;;;;55.72;30.77;;;6.90;99.90;;;;;;5075687;28;20047;-85
2020/12/02 09:11:08;;;;;;;52.45;29.42;;;7.00;99.90;;;;;;5057637;28;20037;-85
2020/12/02 09:13:34;;;;;;;53.35;31.95;;;7.10;99.90;;;;;;5060020;28;20082;-83
2020/12/02 09:16:00;;;;;;;53.97;32.13;;;7.00;99.90;;;;;;5085875;28;20035;-84
2020/12/02 09:18:26;;;;;;;46.78;28.95;;;7.00;99.90;;;;;;5074735;28;20134;-84
2020/12/02 09:20:51;;;;;;;48.35;29.88;;;7.00;99.90;;;;;;5093151;28;20088;-84
2020/12/02 09:23:17;;;;;;;45.78;27.35;;;7.20;99.90;;;;;;5091896;28;20040;-87
2020/12/02 09:25:43;;;;;;;47.72;28.08;;;7.30;99.90;;;;;;5092062;28;20387;-88
2020/12/02 09:28:08;;;;;;;50.30;29.00;;;7.40;99.90;;;;;;5077182;28;20050;-88
2020/12/02 09:30:35;;;;;;;43.78;26.88;;;7.50;99.90;;;;;;5078326;28;20044;-85
2020/12/02 09:33:01;;;;;;;50.58;29.48;;;7.40;99.90;;;;;;5094523;28;20033;-84
2020/12/02 09:35:27;;;;;;;49.47;30.42;;;7.40;99.90;;;;;;5079100;28;20066;-84
2020/12/02 09:37:53;;;;;;;50.58;29.90;;;7.30;99.90;;;;;;5070372;28;20039;-84
2020/12/02 09:40:19;;;;;;;49.60;29.85;;;7.30;99.90;;;;;;5066185;28;20029;-84
2020/12/02 09:43:04;;;;;;;43.42;26.85;;;7.30;99.90;;;;;;5089172;28;20032;-83
2020/12/02 09:45:36;;;;;;;51.28;30.25;;;7.40;99.90;;;;;;5094968;28;20024;-85
2020/12/02 09:48:12;;;;;;;52.00;30.40;;;7.50;99.90;;;;;;5095654;28;20013;-85
2020/12/02 09:50:37;;;;;;;60.85;33.05;;;7.40;99.90;;;;;;5092397;28;20032;-83
2020/12/02 09:53:15;;;;;;;55.20;33.35;;;7.30;99.90;;;;;;5082640;28;20138;-84
2020/12/02 09:55:41;;;;;;;53.80;30.70;;;7.30;99.90;;;;;;5088991;28;20029;-82
2020/12/02 09:58:09;;;;;;;54.08;32.28;;;7.20;99.90;;;;;;5093107;28;20029;-84
2020/12/02 10:00:35;;;;;;;59.22;31.50;;;7.20;99.90;;;;;;5077675;28;20024;-85
2020/12/02 10:03:19;;;;;;;50.67;29.35;;;7.30;99.90;;;;;;5061496;28;20028;-84
2020/12/02 10:06:17;;;;;;;50.78;30.80;;;7.40;99.90;;;;;;5082139;28;20082;-84
2020/12/02 10:09:02;;;;;;;43.42;26.92;;;7.50;99.90;;;;;;5079700;28;20040;-86
2020/12/02 10:11:37;;;;;;;41.30;26.17;;;7.70;99.90;;;;;;5081739;28;20036;-84
2020/12/02 10:14:34;;;;;;;48.10;29.00;;;7.80;99.90;;;;;;5078870;28;20028;-83
2020/12/02 10:17:02;;;;;;;38.67;25.23;;;7.80;99.90;;;;;;5076506;28;20029;-85
2020/12/02 10:19:49;;;;;;;43.78;27.02;;;7.80;99.90;;;;;;5075628;28;20454;-85
2020/12/02 10:22:55;;;;;;;36.40;24.10;;;7.60;99.90;;;;;;5072803;28;20025;-84
2020/12/02 10:25:24;;;;;;;;;;;7.70;99.90;;;;;;5062648;28;20467;-83
2020/12/02 10:28:18;;;;;;;43.75;26.02;;;7.70;99.90;;;;;;5072518;28;19904;-83
2020/12/02 10:31:03;;;;;;;40.63;25.10;;;7.60;99.90;;;;;;5072527;28;20043;-82
2020/12/02 10:33:52;;;;;;;40.65;25.98;;;7.70;99.90;;;;;;5072033;28;20505;-83
2020/12/02 10:36:19;;;;;;;42.85;23.92;;;7.50;99.90;;;;;;5072128;28;20056;-84
2020/12/02 10:38:49;;;;;;;38.35;23.95;;;7.50;99.90;;;;;;5073064;28;20028;-84
2020/12/02 10:41:40;;;;;;;35.15;22.80;;;7.40;99.90;;;;;;5072303;28;20541;-83
2020/12/02 10:44:15;;;;;;;36.45;23.30;;;7.40;99.90;;;;;;5073299;28;20485;-84
2020/12/02 10:46:56;;;;;;;;;;;7.50;99.90;;;;;;5077487;28;20145;-84
2020/12/02 10:49:27;;;;;;;36.00;22.83;;;7.50;99.90;;;;;;5074025;28;19912;-84
2020/12/02 10:51:56;;;;;;;41.50;24.65;;;7.50;99.90;;;;;;5074581;28;20078;-83
2020/12/02 10:54:27;;;;;;;36.00;23.48;;;7.40;99.90;;;;;;5072055;28;20405;-83
2020/12/02 10:56:56;;;;;;;40.10;26.13;;;7.50;99.90;;;;;;5071728;28;20031;-83
2020/12/02 10:59:23;;;;;;;37.08;23.50;;;7.60;99.90;;;;;;5071943;28;20059;-84
2020/12/02 11:01:50;;;;;;;39.05;24.65;;;7.50;99.90;;;;;;5055738;28;20536;-84
2020/12/02 11:04:18;;;;;;;36.70;23.88;;;7.50;99.90;;;;;;5072248;28;20141;-83
2020/12/02 11:07:09;;;;;;;35.60;24.27;;;7.50;99.90;;;;;;5071913;28;20024;-82
2020/12/02 11:09:53;;;;;;;40.08;24.77;;;7.40;99.90;;;;;;5071996;28;20024;-82
2020/12/02 11:12:24;;;;;;;37.55;25.10;;;7.50;99.90;;;;;;5072024;28;20355;-84
2020/12/02 11:15:12;;;;;;;42.33;27.15;;;7.40;99.90;;;;;;5086033;28;20025;-82
2020/12/02 11:17:59;;;;;;;36.80;23.88;;;7.40;99.90;;;;;;5080606;28;20029;-83
2020/12/02 11:20:27;;;;;;;38.35;24.48;;;7.60;99.90;;;;;;5071574;28;20127;-83
2020/12/02 11:23:02;;;;;;;36.13;24.25;;;7.70;99.90;;;;;;5072042;28;20033;-84
2020/12/02 11:25:30;;;;;;;;;;;7.70;99.90;;;;;;5072397;28;20046;-84
2020/12/02 11:27:56;;;;;;;34.85;22.60;;;7.80;99.90;;;;;;5071567;28;20004;-84
2020/12/02 11:30:29;;;;;;;34.15;22.83;;;7.80;99.90;;;;;;5072017;28;20127;-83
2020/12/02 11:33:19;;;;;;;40.50;25.38;;;7.60;99.90;;;;;;5071430;28;20140;-84
2020/12/02 11:36:23;;;;;;;35.22;23.17;;;7.70;99.90;;;;;;5072632;28;20025;-83
2020/12/02 11:38:56;;;;;;;41.90;23.58;;;7.70;99.90;;;;;;5042349;28;20068;-84
2020/12/02 11:41:44;;;;;;;39.90;25.40;;;7.50;99.90;;;;;;5071753;28;20039;-84
2020/12/02 11:44:30;;;;;;;38.92;24.48;;;7.40;99.90;;;;;;5071524;28;20123;-83
2020/12/02 11:47:01;;;;;;;;;;;7.50;99.90;;;;;;5072223;28;20035;-84
2020/12/02 11:49:37;;;;;;;37.50;24.33;;;7.50;99.90;;;;;;5073184;28;19920;-84
2020/12/02 11:52:18;;;;;;;38.50;24.83;;;7.50;99.90;;;;;;5075099;28;20021;-83
2020/12/02 11:54:45;;;;;;;36.97;23.70;;;7.50;99.90;;;;;;5075254;28;20059;-83
2020/12/02 11:57:14;;;;;;;37.10;23.65;;;7.50;99.90;;;;;;5075354;28;20074;-83
2020/12/02 11:59:39;;;;;;;34.15;23.50;;;7.50;99.90;;;;;;5074748;28;20119;-83
2020/12/02 12:02:20;;;;;;;37.78;23.90;;;7.50;99.90;;;;;;5074868;28;20067;-83
2020/12/02 12:05:09;;;;;;;38.70;23.50;;;7.40;99.90;;;;;;5074596;28;20167;-84
2020/12/02 12:07:35;;;;;;;35.42;23.27;;;7.40;99.90;;;;;;5074878;28;20086;-84
2020/12/02 12:10:30;;;;;;;38.97;24.40;;;7.50;99.90;;;;;;5075064;28;20470;-84
2020/12/02 12:13:32;;;;;;;40.50;25.63;;;7.50;99.90;;;;;;5075027;28;20108;-83
2020/12/02 12:16:22;;;;;;;38.80;24.45;;;7.50;99.90;;;;;;5074577;28;20052;-83
2020/12/02 12:19:01;;;;;;;42.10;26.17;;;7.40;99.90;;;;;;5074909;28;20043;-83
2020/12/02 12:21:48;;;;;;;37.70;23.70;;;7.30;99.90;;;;;;5075594;28;20147;-83
2020/12/02 12:24:16;;;;;;;40.78;25.65;;;7.30;99.90;;;;;;5074117;28;20024;-83
2020/12/02 12:26:48;;;;;;;37.95;23.90;;;7.40;99.90;;;;;;5075441;28;20048;-84
2020/12/02 12:29:13;;;;;;;32.25;22.33;;;7.40;99.90;;;;;;5075878;28;20024;-83
2020/12/02 12:31:47;;;;;;;36.08;23.02;;;7.40;99.90;;;;;;5075816;28;20138;-85
2020/12/02 12:34:40;;;;;;;37.97;24.65;;;7.40;99.90;;;;;;5074065;28;20123;-83
2020/12/02 12:37:23;;;;;;;34.78;22.55;;;7.40;99.90;;;;;;5074353;28;20029;-83
2020/12/02 12:39:58;;;;;;;36.80;23.00;;;7.50;99.90;;;;;;5074699;28;20037;-82
2020/12/02 12:42:27;;;;;;;35.85;22.98;;;7.50;99.90;;;;;;5074666;28;20032;-85
2020/12/02 12:44:58;;;;;;;34.60;21.98;;;7.60;99.90;;;;;;5073919;28;20115;-83
2020/12/02 12:47:33;;;;;;;36.42;23.50;;;7.50;99.90;;;;;;5075212;28;20024;-85
2020/12/02 12:49:58;;;;;;;;;;;7.40;99.90;;;;;;5080833;28;20059;-83
2020/12/02 12:52:30;;;;;;;36.33;22.42;;;7.40;99.90;;;;;;5074104;28;20350;-84
2020/12/02 12:54:56;;;;;;;36.28;23.48;;;7.40;99.90;;;;;;5074110;28;20020;-83
2020/12/02 12:57:26;;;;;;;31.50;21.40;;;7.40;99.90;;;;;;5073636;28;20102;-83
2020/12/02 12:59:53;;;;;;;33.20;21.65;;;7.50;99.90;;;;;;5073384;28;20378;-83
2020/12/02 13:02:37;;;;;;;36.25;21.70;;;7.50;99.90;;;;;;5073644;28;20039;-84
2020/12/02 13:05:06;;;;;;;31.10;20.20;;;7.50;99.90;;;;;;5058051;28;20032;-83